Time;durP1;ratioP1;P1;durP2;ratioP2;P2;SDS_P1;SDS_P2;PMS_P1;PMS_P2;Temp;Humidity;BMP_temperature;BMP_pressure;BME280_temperature;BME280_humidity;BME280_pressure;Samples;Min_cycle;Max_cycle;Signal;HPM_P1;HPM_P2
2021/07/25 00:01:32;;;;;;;4.97;4.30;;;;;;;24.27;45.35;97403.08;127044;1092;62677;-74
2021/07/25 00:03:59;;;;;;;5.07;4.20;;;;;;;24.27;45.35;97403.08;127065;1092;62568;-73
2021/07/25 00:06:26;;;;;;;5.30;4.75;;;;;;;24.26;45.09;97412.09;127032;1092;62608;-74
2021/07/25 00:08:53;;;;;;;5.30;4.57;;;;;;;24.25;44.98;97405.11;127117;1092;62628;-74
2021/07/25 00:11:20;;;;;;;5.07;4.57;;;;;;;24.21;44.94;97409.19;127007;1092;62642;-74
2021/07/25 00:13:51;;;;;;;5.20;4.37;;;;;;;24.18;44.82;97412.28;126909;1092;62673;-76
2021/07/25 00:16:19;;;;;;;5.90;4.93;;;;;;;24.13;44.82;97414.72;126989;1092;62754;-74
2021/07/25 00:18:46;;;;;;;5.20;4.53;;;;;;;24.07;44.92;97405.63;127036;1092;62636;-75
2021/07/25 00:21:13;;;;;;;4.90;4.40;;;;;;;24.01;45.03;97406.42;126997;1092;62625;-73
2021/07/25 00:23:47;;;;;;;4.93;4.40;;;;;;;23.97;45.19;97391.81;126930;1092;62649;-73
2021/07/25 00:26:17;;;;;;;4.60;4.20;;;;;;;23.95;45.18;97396.53;127013;1092;62696;-73
2021/07/25 00:28:47;;;;;;;6.07;4.73;;;;;;;23.94;45.58;97392.20;126950;1092;62585;-73
2021/07/25 00:31:14;;;;;;;5.87;4.00;;;;;;;23.93;45.57;97387.88;126984;1092;62629;-74
2021/07/25 00:33:42;;;;;;;5.33;4.60;;;;;;;23.94;45.38;97389.53;126995;1092;62732;-73
2021/07/25 00:36:09;;;;;;;5.67;4.60;;;;;;;23.93;45.50;97390.55;126933;1092;62591;-73
2021/07/25 00:38:36;;;;;;;4.83;4.27;;;;;;;23.94;45.71;97399.38;127007;1092;62732;-74
2021/07/25 00:41:12;;;;;;;5.20;4.37;;;;;;;23.94;45.74;97380.70;127028;1092;62622;-74
2021/07/25 00:43:39;;;;;;;4.80;4.10;;;;;;;23.94;45.53;97392.20;127016;1092;62617;-72
2021/07/25 00:46:06;;;;;;;5.17;4.67;;;;;;;23.96;45.57;97384.02;127059;1092;62585;-73
2021/07/25 00:48:34;;;;;;;4.70;4.00;;;;;;;23.96;45.54;97389.34;126978;1092;62617;-73
2021/07/25 00:51:01;;;;;;;4.67;4.17;;;;;;;23.97;45.73;97386.47;126944;1092;62620;-73
2021/07/25 00:53:28;;;;;;;5.07;4.27;;;;;;;23.98;45.83;97376.62;126948;1095;62629;-76
2021/07/25 00:55:55;;;;;;;6.00;4.60;;;;;;;23.97;45.71;97377.64;126984;1095;62616;-75
2021/07/25 00:58:22;;;;;;;5.27;4.70;;;;;;;23.97;45.91;97375.80;126936;1092;62896;-74
2021/07/25 01:00:49;;;;;;;5.63;4.50;;;;;;;23.96;45.70;97374.16;126969;1092;62636;-74
2021/07/25 01:03:34;;;;;;;5.20;4.70;;;;;;;23.93;45.40;97371.05;126906;1092;62603;-74
2021/07/25 01:06:10;;;;;;;5.70;4.67;;;;;;;23.90;45.57;97366.94;126982;1092;62750;-74
2021/07/25 01:08:57;;;;;;;4.93;4.43;;;;;;;23.86;45.85;97353.16;127022;1092;62641;-74
2021/07/25 01:11:45;;;;;;;4.93;4.27;;;;;;;23.85;45.55;97362.20;127111;1090;62655;-75
2021/07/25 01:14:16;;;;;;;5.27;4.43;;;;;;;23.87;45.65;97356.65;127093;1092;62594;-74
2021/07/25 01:16:43;;;;;;;4.73;4.30;;;;;;;23.86;45.78;97350.48;126961;1092;62680;-74
2021/07/25 01:19:10;;;;;;;5.17;4.13;;;;;;;23.86;45.89;97352.34;126985;1090;62617;-73
2021/07/25 01:21:37;;;;;;;5.40;4.40;;;;;;;23.86;45.85;97347.00;127009;1092;62568;-74
2021/07/25 01:24:04;;;;;;;5.33;4.83;;;;;;;23.85;45.86;97351.52;126987;1092;62645;-74
2021/07/25 01:26:31;;;;;;;5.37;4.63;;;;;;;23.86;45.99;97355.83;127087;1092;62930;-74
2021/07/25 01:28:59;;;;;;;5.50;4.50;;;;;;;23.86;45.81;97361.17;127015;1092;62645;-75
2021/07/25 01:31:34;;;;;;;5.23;4.57;;;;;;;23.85;46.06;97362.20;126971;1092;62623;-75
2021/07/25 01:34:01;;;;;;;5.00;4.47;;;;;;;23.86;46.05;97377.18;126976;1092;62630;-76
2021/07/25 01:36:28;;;;;;;5.57;4.97;;;;;;;23.86;45.99;97371.84;127043;1092;62617;-74
2021/07/25 01:38:56;;;;;;;4.90;4.40;;;;;;;23.85;45.96;97375.54;127024;1092;62624;-74
2021/07/25 01:41:23;;;;;;;5.13;4.20;;;;;;;23.86;45.91;97369.17;126959;1092;62675;-74
2021/07/25 01:43:51;;;;;;;4.90;4.07;;;;;;;23.85;45.98;97370.20;126999;1092;62674;-74
2021/07/25 01:46:18;;;;;;;5.90;4.50;;;;;;;23.85;45.86;97370.20;127009;1092;62615;-74
2021/07/25 01:48:45;;;;;;;5.23;4.57;;;;;;;23.86;45.88;97374.52;126966;1092;62602;-73
2021/07/25 01:51:13;;;;;;;4.87;4.37;;;;;;;23.84;46.12;97371.20;126998;1092;62958;-73
2021/07/25 01:53:40;;;;;;;5.13;4.53;;;;;;;23.84;46.03;97381.88;127461;1092;62608;-73
2021/07/25 01:56:07;;;;;;;5.67;4.80;;;;;;;23.85;45.94;97378.20;127231;1092;62632;-74
2021/07/25 01:58:34;;;;;;;4.80;4.30;;;;;;;23.85;45.93;97382.72;127003;1092;62638;-76
2021/07/25 02:01:01;;;;;;;5.20;4.40;;;;;;;23.85;45.94;97383.55;126999;1092;62585;-76
2021/07/25 02:03:28;;;;;;;4.93;4.40;;;;;;;23.84;46.07;97375.72;126958;1092;62619;-74
2021/07/25 02:05:56;;;;;;;4.90;4.27;;;;;;;23.82;46.00;97381.26;127041;1092;62687;-74
2021/07/25 02:08:23;;;;;;;4.90;4.40;;;;;;;23.82;46.06;97394.61;127140;1092;62790;-75
2021/07/25 02:10:50;;;;;;;4.73;4.23;;;;;;;23.82;45.91;97383.93;126968;1092;62585;-74
2021/07/25 02:13:18;;;;;;;5.40;4.53;;;;;;;23.82;46.17;97388.45;127035;1092;62616;-76
2021/07/25 02:15:46;;;;;;;5.10;4.30;;;;;;;23.82;46.09;97393.78;126950;1092;62624;-74
2021/07/25 02:18:13;;;;;;;5.03;4.20;;;;;;;23.80;46.29;97385.98;126947;1092;62691;-77
2021/07/25 02:20:43;;;;;;;5.30;4.30;;;;;;;23.79;46.17;97386.98;126989;1092;62674;-76
2021/07/25 02:23:10;;;;;;;5.03;4.43;;;;;;;23.79;46.20;97391.49;126957;1092;62625;-78
2021/07/25 02:25:38;;;;;;;4.70;3.70;;;;;;;23.78;46.03;97395.19;126995;1092;62675;-74
2021/07/25 02:28:06;;;;;;;5.00;4.30;;;;;;;23.78;46.24;97389.85;126961;1092;62622;-74
2021/07/25 02:30:33;;;;;;;4.95;4.10;;;;;;;23.77;46.29;97386.36;126953;1092;62648;-74
2021/07/25 02:33:00;;;;;;;5.00;4.27;;;;;;;23.75;46.23;97384.89;126980;1092;62645;-74
2021/07/25 02:35:27;;;;;;;5.47;4.47;;;;;;;23.76;46.31;97395.39;126942;1092;62687;-74
2021/07/25 02:37:54;;;;;;;5.27;4.47;;;;;;;23.76;46.14;97389.23;126982;1092;62594;-74
2021/07/25 02:40:23;;;;;;;5.20;4.43;;;;;;;23.74;46.40;97389.41;127005;1092;62572;-74
2021/07/25 02:42:50;;;;;;;4.67;4.20;;;;;;;23.74;46.34;97386.74;126942;1092;62675;-74
2021/07/25 02:45:17;;;;;;;5.00;4.50;;;;;;;23.74;46.37;97392.08;127012;1092;62729;-74
2021/07/25 02:47:44;;;;;;;5.70;4.50;;;;;;;23.73;46.18;97393.11;126940;1092;62619;-73
2021/07/25 02:50:11;;;;;;;5.00;4.20;;;;;;;23.72;46.31;97391.47;126958;1092;62588;-73
2021/07/25 02:52:38;;;;;;;5.20;4.43;;;;;;;23.72;46.28;97394.13;126944;1092;62645;-74
2021/07/25 02:55:06;;;;;;;5.07;4.30;;;;;;;23.72;46.07;97395.98;126966;1092;62618;-74
2021/07/25 02:57:33;;;;;;;4.80;4.03;;;;;;;23.72;46.22;97398.65;127010;1092;62784;-74
2021/07/25 03:00:00;;;;;;;4.77;4.27;;;;;;;23.71;46.14;97399.64;126947;1092;62729;-73
2021/07/25 03:02:27;;;;;;;4.80;4.30;;;;;;;23.70;46.35;97398.83;126993;1092;62636;-72
2021/07/25 03:04:55;;;;;;;4.80;4.13;;;;;;;23.71;46.28;97400.50;126993;1092;62639;-73
2021/07/25 03:07:22;;;;;;;5.20;4.30;;;;;;;23.71;46.39;97397.83;126978;1092;62752;-73
2021/07/25 03:09:49;;;;;;;5.00;4.20;;;;;;;23.72;46.33;97399.47;126985;1092;62804;-73
2021/07/25 03:12:16;;;;;;;4.97;4.10;;;;;;;23.73;46.30;97403.78;126957;1092;62583;-72
2021/07/25 03:14:43;;;;;;;5.73;4.30;;;;;;;23.74;46.05;97408.09;127019;1092;62620;-74
2021/07/25 03:17:10;;;;;;;4.57;4.13;;;;;;;23.75;46.33;97403.58;127015;1092;62613;-73
2021/07/25 03:19:37;;;;;;;4.80;4.20;;;;;;;23.77;46.24;97407.71;127004;1092;62623;-73
2021/07/25 03:22:07;;;;;;;5.10;4.60;;;;;;;23.80;46.05;97399.33;126950;1092;62970;-73
2021/07/25 03:24:34;;;;;;;4.63;3.93;;;;;;;23.85;46.19;97410.23;127061;1092;62609;-73
2021/07/25 03:27:01;;;;;;;5.40;4.60;;;;;;;23.92;45.89;97420.13;126986;1092;62677;-73
2021/07/25 03:29:29;;;;;;;5.10;4.17;;;;;;;23.99;45.85;97420.97;126961;1092;62620;-73
2021/07/25 03:31:56;;;;;;;5.07;4.27;;;;;;;24.04;45.97;97421.23;126935;1092;62672;-73
2021/07/25 03:34:23;;;;;;;5.00;4.47;;;;;;;24.10;45.83;97421.27;126981;1092;62719;-74
2021/07/25 03:36:50;;;;;;;5.67;4.53;;;;;;;24.17;45.79;97425.80;126974;1093;62636;-73
2021/07/25 03:39:19;;;;;;;6.30;4.70;;;;;;;24.23;45.37;97431.20;126977;1092;62617;-73
2021/07/25 03:41:47;;;;;;;5.17;4.43;;;;;;;24.30;45.58;97434.71;126977;1094;63338;-72
2021/07/25 03:44:14;;;;;;;5.70;4.70;;;;;;;24.36;45.47;97433.97;127091;1092;63121;-72
2021/07/25 03:46:41;;;;;;;5.30;4.80;;;;;;;24.43;45.26;97433.99;127069;1092;62690;-73
2021/07/25 03:49:08;;;;;;;5.45;4.60;;;;;;;24.50;45.06;97434.04;127071;1092;62639;-73
2021/07/25 03:51:36;;;;;;;4.85;4.10;;;;;;;24.57;44.78;97435.69;127066;1092;62617;-73
2021/07/25 03:54:04;;;;;;;5.13;4.63;;;;;;;24.66;44.72;97439.02;126990;1092;62620;-73
2021/07/25 03:56:33;;;;;;;6.13;5.43;;;;;;;24.72;44.45;97438.20;126940;1092;62589;-74
2021/07/25 03:59:19;;;;;;;6.10;4.93;;;;;;;24.80;44.15;97445.23;127021;1092;62662;-73
2021/07/25 04:01:47;;;;;;;5.53;4.93;;;;;;;24.89;43.87;97450.20;127003;1092;62572;-74
2021/07/25 04:04:14;;;;;;;5.10;4.50;;;;;;;24.95;43.63;97437.05;127027;1092;62633;-73
2021/07/25 04:06:41;;;;;;;5.40;4.80;;;;;;;24.99;43.38;97441.79;126945;1092;62667;-74
2021/07/25 04:09:08;;;;;;;5.77;4.90;;;;;;;25.08;43.23;97437.11;126989;1092;62620;-73
2021/07/25 04:11:35;;;;;;;5.10;4.57;;;;;;;25.15;42.72;97443.31;126950;1092;62620;-74
2021/07/25 04:14:20;;;;;;;5.63;4.93;;;;;;;25.26;42.76;97445.38;126975;1092;62639;-74
2021/07/25 04:16:48;;;;;;;5.80;5.20;;;;;;;25.49;41.92;97453.02;127023;1092;62566;-73
2021/07/25 04:19:15;;;;;;;5.53;4.93;;;;;;;25.72;41.66;97449.92;126999;1092;62601;-74
2021/07/25 04:21:42;;;;;;;6.97;5.83;;;;;;;25.92;41.42;97454.47;126973;1092;62670;-75
2021/07/25 04:24:09;;;;;;;6.17;5.20;;;;;;;26.01;40.81;97453.22;127005;1092;62633;-73
2021/07/25 04:26:37;;;;;;;7.00;5.50;;;;;;;26.03;40.95;97451.17;127007;1092;62674;-73
2021/07/25 04:29:04;;;;;;;6.67;5.53;;;;;;;26.13;41.01;97455.06;126995;1092;62628;-73
2021/07/25 04:31:32;;;;;;;6.37;5.60;;;;;;;26.36;40.49;97451.91;126987;1092;62652;-74
2021/07/25 04:33:59;;;;;;;6.90;5.33;;;;;;;26.64;40.03;97461.55;127031;1092;62681;-73
2021/07/25 04:36:27;;;;;;;5.47;4.87;;;;;;;27.01;39.46;97461.78;126985;1092;62631;-74
2021/07/25 04:38:55;;;;;;;6.07;5.23;;;;;;;27.29;39.22;97464.13;127014;1092;62601;-74
2021/07/25 04:41:24;;;;;;;7.07;5.50;;;;;;;27.50;39.06;97462.93;126947;1092;62626;-75
2021/07/25 04:44:02;;;;;;;5.67;5.07;;;;;;;27.85;38.77;97461.44;126998;1092;62636;-73
2021/07/25 04:46:29;;;;;;;5.83;5.23;;;;;;;28.29;37.93;97464.14;126975;1092;62684;-74
2021/07/25 04:49:00;;;;;;;5.77;5.17;;;;;;;28.62;37.55;97461.11;127038;1092;62671;-75
2021/07/25 04:51:28;;;;;;;6.70;5.40;;;;;;;28.75;37.10;97460.09;127044;1092;62630;-73
2021/07/25 04:53:55;;;;;;;9.15;5.50;;;;;;;28.77;36.96;97460.71;127068;1092;62588;-73
2021/07/25 04:56:22;;;;;;;6.17;5.30;;;;;;;28.71;37.32;97459.75;127025;1092;62649;-72
2021/07/25 04:59:04;;;;;;;7.30;5.87;;;;;;;28.65;37.37;97466.02;126985;1092;62604;-73
2021/07/25 05:01:35;;;;;;;6.37;4.73;;;;;;;28.62;37.66;97466.48;127020;1092;62712;-74
2021/07/25 05:04:04;;;;;;;5.35;4.20;;;;;;;28.64;37.56;97462.51;127013;1092;62569;-74
2021/07/25 05:06:31;;;;;;;5.28;4.53;;;;;;;28.72;37.39;97471.33;126953;1092;63063;-74
2021/07/25 05:08:59;;;;;;;5.43;4.53;;;;;;;28.75;37.40;97465.48;127054;1092;62667;-74
2021/07/25 05:11:32;;;;;;;5.93;5.17;;;;;;;28.82;37.38;97464.36;126907;1095;62690;-74
2021/07/25 05:14:00;;;;;;;5.60;4.80;;;;;;;28.87;37.64;97467.19;127241;1092;62684;-73
2021/07/25 05:16:39;;;;;;;6.40;5.13;;;;;;;28.95;37.51;97465.24;127004;1092;62625;-75
2021/07/25 05:19:34;;;;;;;5.25;4.70;;;;;;;29.06;37.07;97472.56;127055;1092;62629;-74
2021/07/25 05:22:05;;;;;;;6.33;4.70;;;;;;;29.21;36.92;97477.53;127027;1092;62620;-74
2021/07/25 05:24:39;;;;;;;5.43;4.33;;;;;;;29.35;36.92;97476.28;127103;1092;62646;-72
2021/07/25 05:27:06;;;;;;;4.80;4.33;;;;;;;29.52;36.41;97466.50;127070;1092;62626;-78
2021/07/25 05:29:33;;;;;;;5.30;4.27;;;;;;;29.80;36.25;97473.95;127146;1092;62743;-78
2021/07/25 05:32:00;;;;;;;5.15;4.50;;;;;;;30.42;35.44;97477.04;126999;1092;62614;-74
2021/07/25 05:34:27;;;;;;;7.17;4.60;;;;;;;31.18;34.15;97476.95;127015;1092;62617;-74
2021/07/25 05:36:54;;;;;;;6.20;5.47;;;;;;;31.79;33.08;97478.04;127086;1092;62612;-74
2021/07/25 05:39:21;;;;;;;5.40;4.67;;;;;;;32.28;32.62;97478.28;126981;1095;62610;-72
2021/07/25 05:41:48;;;;;;;5.87;4.70;;;;;;;32.52;31.96;97473.50;126955;1092;62624;-74
2021/07/25 05:44:15;;;;;;;5.75;4.50;;;;;;;32.66;31.73;97471.23;127074;1092;62636;-73
2021/07/25 05:46:42;;;;;;;4.60;4.10;;;;;;;32.85;31.50;97469.84;126986;1092;62607;-73
2021/07/25 05:49:09;;;;;;;5.30;3.93;;;;;;;33.09;31.19;97472.30;126980;1092;62601;-75
2021/07/25 05:51:37;;;;;;;4.67;4.23;;;;;;;33.54;30.56;97465.73;127093;1092;62804;-74
2021/07/25 05:54:04;;;;;;;5.50;4.30;;;;;;;34.13;29.57;97471.11;127000;1092;62637;-75
2021/07/25 05:56:31;;;;;;;4.80;4.30;;;;;;;34.68;28.77;97467.09;126980;1092;62620;-76
2021/07/25 05:58:58;;;;;;;6.10;4.63;;;;;;;35.19;27.89;97473.53;126994;1092;62622;-73
2021/07/25 06:01:25;;;;;;;6.03;4.87;;;;;;;35.69;27.32;97473.90;126975;1092;62601;-74
2021/07/25 06:03:53;;;;;;;5.53;4.30;;;;;;;36.13;26.77;97465.98;126935;1092;62632;-74
2021/07/25 06:06:20;;;;;;;5.10;4.10;;;;;;;36.58;26.17;97467.00;126934;1092;62706;-73
2021/07/25 06:08:47;;;;;;;4.45;4.00;;;;;;;37.03;25.69;97478.01;127075;1092;62668;-73
2021/07/25 06:11:22;;;;;;;5.37;4.30;;;;;;;37.43;25.26;97477.77;127033;1092;63006;-72
2021/07/25 06:13:50;;;;;;;5.77;4.30;;;;;;;37.85;25.12;97479.11;126985;1095;62669;-73
2021/07/25 06:16:17;;;;;;;5.27;4.57;;;;;;;38.20;24.78;97483.42;127068;1092;62652;-73
2021/07/25 06:18:48;;;;;;;6.35;4.45;;;;;;;38.53;24.14;97480.11;127016;1092;62751;-73
2021/07/25 06:21:18;;;;;;;4.95;4.10;;;;;;;38.83;23.68;97478.95;126964;1092;62621;-73
2021/07/25 06:23:47;;;;;;;4.70;4.20;;;;;;;39.12;23.54;97482.40;127051;1092;62669;-73
2021/07/25 06:26:14;;;;;;;5.35;4.43;;;;;;;39.38;22.71;97476.58;127029;1092;62584;-74
2021/07/25 06:28:41;;;;;;;4.60;4.20;;;;;;;39.63;22.54;97473.46;126994;1092;62726;-74
2021/07/25 06:31:09;;;;;;;4.80;4.30;;;;;;;39.88;22.30;97469.51;127011;1092;62635;-74
2021/07/25 06:33:36;;;;;;;4.65;4.15;;;;;;;40.12;21.88;97476.78;127034;1092;62626;-74
2021/07/25 06:36:04;;;;;;;4.90;4.40;;;;;;;40.37;21.51;97468.11;126943;1092;62650;-74
2021/07/25 06:38:31;;;;;;;5.27;4.50;;;;;;;40.58;21.22;97471.27;127028;1092;62986;-73
2021/07/25 06:40:59;;;;;;;4.95;4.30;;;;;;;40.78;21.07;97475.55;127039;1092;62569;-72
2021/07/25 06:43:26;;;;;;;5.10;4.45;;;;;;;40.99;20.95;97469.65;127021;1092;62715;-73
2021/07/25 06:45:53;;;;;;;5.07;4.27;;;;;;;41.17;20.64;97483.21;126979;1092;62607;-74
2021/07/25 06:48:24;;;;;;;5.00;4.25;;;;;;;41.34;20.49;97482.56;126964;1092;62684;-73
2021/07/25 06:50:56;;;;;;;6.30;4.15;;;;;;;41.51;20.42;97486.59;127085;1092;62862;-73
2021/07/25 06:53:24;;;;;;;4.08;3.68;;;;;;;41.65;20.24;97479.14;126974;1092;62817;-73
2021/07/25 06:55:52;;;;;;;;;;;;;;;41.81;20.63;97483.14;126991;1095;62622;-73
2021/07/25 06:58:19;;;;;;;4.97;4.47;;;;;;;41.94;20.20;97478.71;126976;1092;62623;-74
2021/07/25 07:00:46;;;;;;;5.05;4.15;;;;;;;42.07;19.77;97488.80;127008;1092;62608;-75
2021/07/25 07:03:19;;;;;;;4.60;4.00;;;;;;;42.20;19.59;97481.58;126946;1092;62645;-74
2021/07/25 07:05:47;;;;;;;4.85;4.20;;;;;;;42.36;19.63;97482.03;126993;1092;62684;-73
2021/07/25 07:08:14;;;;;;;4.88;3.80;;;;;;;42.50;19.62;97471.73;126964;1092;62644;-74
2021/07/25 07:10:43;;;;;;;4.48;4.08;;;;;;;42.66;19.14;97478.44;126985;1092;62649;-73
2021/07/25 07:13:12;;;;;;;4.90;3.95;;;;;;;42.84;18.93;97471.05;126980;1092;62671;-73
2021/07/25 07:15:41;;;;;;;4.65;4.25;;;;;;;43.01;19.00;97472.23;126979;1092;62640;-73
2021/07/25 07:18:08;;;;;;;4.70;4.30;;;;;;;43.18;18.76;97467.59;127006;1092;62653;-74
2021/07/25 07:20:35;;;;;;;4.90;4.40;;;;;;;43.37;18.35;97467.27;127056;1092;62700;-73
2021/07/25 07:23:04;;;;;;;4.63;4.10;;;;;;;43.54;18.36;97466.47;127011;1092;62628;-73
2021/07/25 07:25:33;;;;;;;5.30;3.95;;;;;;;43.67;18.05;97475.69;127021;1092;62591;-72
2021/07/25 07:28:01;;;;;;;4.80;4.20;;;;;;;43.79;18.00;97470.34;126996;1092;62619;-72
2021/07/25 07:30:28;;;;;;;4.07;3.67;;;;;;;43.91;18.08;97469.69;126968;1092;62608;-73
2021/07/25 07:32:55;;;;;;;4.55;4.08;;;;;;;44.03;17.82;97471.77;126987;1092;62701;-72
2021/07/25 07:35:25;;;;;;;5.45;4.40;;;;;;;44.13;17.43;97476.92;126952;1092;62629;-73
2021/07/25 07:37:52;;;;;;;4.40;4.00;;;;;;;44.21;17.82;97478.84;126918;1092;62607;-73
2021/07/25 07:40:19;;;;;;;4.23;3.83;;;;;;;44.27;17.35;97479.50;126995;1092;63083;-74
2021/07/25 07:42:46;;;;;;;4.65;4.20;;;;;;;44.33;17.50;97470.74;126980;1092;62626;-74
2021/07/25 07:45:15;;;;;;;4.60;3.98;;;;;;;44.40;17.27;97465.51;126991;1092;62684;-72
2021/07/25 07:47:42;;;;;;;5.80;4.23;;;;;;;44.45;17.06;97470.83;127023;1092;62625;-73
2021/07/25 07:50:10;;;;;;;4.53;4.00;;;;;;;44.46;17.22;97472.44;127058;1092;62635;-73
2021/07/25 07:52:37;;;;;;;4.30;3.90;;;;;;;44.46;17.05;97472.44;126950;1092;62617;-72
2021/07/25 07:55:04;;;;;;;4.48;4.08;;;;;;;44.52;16.85;97469.53;127023;1092;62643;-72
2021/07/25 07:57:31;;;;;;;4.50;4.10;;;;;;;44.55;16.81;97469.65;126950;1092;62659;-73
2021/07/25 07:59:58;;;;;;;4.55;4.15;;;;;;;44.56;16.72;97467.70;126964;1092;62605;-73
2021/07/25 08:02:25;;;;;;;4.80;4.30;;;;;;;44.57;17.08;97461.07;126935;1092;62648;-73
2021/07/25 08:04:52;;;;;;;4.80;4.07;;;;;;;44.58;16.95;97468.19;126950;1092;62569;-73
2021/07/25 08:07:37;;;;;;;4.45;4.05;;;;;;;44.58;16.84;97457.97;127011;1092;62671;-73
2021/07/25 08:10:06;;;;;;;4.73;4.23;;;;;;;44.58;17.03;97462.68;127009;1092;62591;-73
2021/07/25 08:12:34;;;;;;;5.33;4.00;;;;;;;44.57;16.70;97461.07;127003;1092;62635;-73
2021/07/25 08:15:01;;;;;;;5.27;3.90;;;;;;;44.57;16.90;97466.58;127002;1092;62603;-73
2021/07/25 08:17:28;;;;;;;5.00;4.50;;;;;;;44.55;16.72;97457.82;126920;1092;62720;-73
2021/07/25 08:19:55;;;;;;;4.50;4.10;;;;;;;44.54;16.92;97456.21;126991;1092;62620;-73
2021/07/25 08:22:22;;;;;;;4.30;3.90;;;;;;;44.52;16.62;97450.23;127005;1092;63025;-74
2021/07/25 08:24:49;;;;;;;4.80;4.30;;;;;;;44.48;16.66;97446.53;127050;1092;63070;-73
2021/07/25 08:27:16;;;;;;;4.37;3.87;;;;;;;44.45;16.96;97446.03;126965;1092;62568;-73
2021/07/25 08:29:43;;;;;;;4.70;4.30;;;;;;;44.41;16.87;97436.81;126967;1092;62633;-73
2021/07/25 08:32:10;;;;;;;4.50;4.10;;;;;;;44.38;16.87;97443.00;127043;1092;62777;-74
2021/07/25 08:34:38;;;;;;;5.00;4.53;;;;;;;44.35;16.98;97434.59;126995;1092;62655;-72
2021/07/25 08:37:06;;;;;;;4.65;4.25;;;;;;;44.29;16.85;97436.73;127011;1095;62643;-72
2021/07/25 08:39:33;;;;;;;4.35;3.95;;;;;;;44.24;16.72;97441.59;126975;1092;62912;-70
2021/07/25 08:42:06;;;;;;;5.43;4.13;;;;;;;44.12;17.13;97426.55;126954;1092;62676;-71
2021/07/25 08:44:52;;;;;;;4.30;3.90;;;;;;;44.04;16.99;97426.57;126986;1092;62572;-71
2021/07/25 08:47:33;;;;;;;4.60;4.20;;;;;;;43.94;16.92;97423.04;126981;1092;62722;-73
2021/07/25 08:50:07;;;;;;;5.20;4.70;;;;;;;43.83;17.50;97419.03;127103;1092;62616;-72
2021/07/25 08:52:39;;;;;;;4.90;4.50;;;;;;;43.68;17.37;97420.34;127001;1092;62617;-73
2021/07/25 08:55:08;;;;;;;5.18;4.68;;;;;;;43.52;17.31;97412.92;127017;1095;62546;-74
2021/07/25 08:57:37;;;;;;;5.30;4.80;;;;;;;43.31;17.47;97405.28;127025;1095;62585;-72
2021/07/25 09:00:07;;;;;;;5.17;4.70;;;;;;;42.97;17.91;97398.63;127094;1095;62620;-72
2021/07/25 09:02:34;;;;;;;5.15;4.75;;;;;;;42.39;18.28;97394.32;126996;1095;62619;-72
2021/07/25 09:05:02;;;;;;;5.40;4.90;;;;;;;41.63;19.24;97396.33;127053;1094;62630;-72
2021/07/25 09:07:30;;;;;;;5.00;4.50;;;;;;;40.70;20.01;97397.62;126976;1092;62621;-72
2021/07/25 09:09:58;;;;;;;;;;;;;;;39.80;20.60;97392.77;127030;1092;62636;-72
2021/07/25 09:12:25;;;;;;;5.28;4.78;;;;;;;39.00;21.63;97391.03;127064;1092;62629;-74
2021/07/25 09:15:04;;;;;;;5.67;5.17;;;;;;;38.25;22.26;97378.04;126988;1092;62654;-74
2021/07/25 09:17:31;;;;;;;5.55;5.05;;;;;;;37.49;22.53;97387.77;126996;1092;62621;-74
2021/07/25 09:20:30;;;;;;;6.20;5.60;;;;;;;36.89;23.20;97385.98;127098;1092;62568;-77
2021/07/25 09:23:09;;;;;;;5.48;5.00;;;;;;;36.21;23.90;97391.16;127019;1092;62735;-78
2021/07/25 09:25:41;;;;;;;5.38;4.88;;;;;;;35.66;24.99;97387.44;127091;1092;62625;-74
2021/07/25 09:28:12;;;;;;;6.15;5.53;;;;;;;35.18;25.15;97389.59;127064;1092;62619;-74
2021/07/25 09:30:39;;;;;;;6.00;5.40;;;;;;;34.77;25.70;97377.81;127072;1092;62616;-73
2021/07/25 09:33:25;;;;;;;6.53;5.93;;;;;;;34.39;26.26;97380.66;127024;1092;62678;-74
2021/07/25 09:35:52;;;;;;;6.45;5.85;;;;;;;34.01;26.77;97380.99;127019;1092;63083;-74
2021/07/25 09:38:19;;;;;;;6.83;6.23;;;;;;;33.69;27.27;97381.84;127025;1092;62927;-74
2021/07/25 09:40:47;;;;;;;6.30;5.70;;;;;;;33.40;27.40;97373.20;127036;1092;62627;-74
2021/07/25 09:43:24;;;;;;;5.70;5.20;;;;;;;33.15;27.95;97380.05;127015;1092;62628;-74
2021/07/25 09:45:54;;;;;;;6.20;5.60;;;;;;;32.90;28.17;97377.05;127095;1092;62593;-74
2021/07/25 09:48:29;;;;;;;6.20;5.70;;;;;;;32.68;28.50;97379.81;127117;1092;62616;-75
2021/07/25 09:50:58;;;;;;;6.30;5.70;;;;;;;32.47;28.79;97378.75;127075;1092;62847;-75
2021/07/25 09:53:41;;;;;;;6.03;5.53;;;;;;;32.26;29.34;97380.34;127100;1092;62623;-76
2021/07/25 09:56:15;;;;;;;6.93;6.33;;;;;;;32.09;29.64;97376.90;126999;1092;62627;-76
2021/07/25 09:58:43;;;;;;;6.60;6.00;;;;;;;31.92;29.92;97385.84;127013;1092;62639;-75
2021/07/25 10:01:10;;;;;;;6.75;6.15;;;;;;;31.77;30.15;97373.98;126971;1092;62707;-74
2021/07/25 10:03:37;;;;;;;6.65;6.05;;;;;;;31.63;30.34;97368.11;127004;1092;62754;-76
2021/07/25 10:06:23;;;;;;;6.80;6.20;;;;;;;31.51;30.69;97372.77;126969;1092;62596;-75
2021/07/25 10:09:09;;;;;;;6.13;5.63;;;;;;;31.35;30.95;97369.84;127086;1092;62681;-73
2021/07/25 10:11:37;;;;;;;6.47;5.67;;;;;;;31.23;31.01;97365.54;127001;1092;62659;-73
2021/07/25 10:14:04;;;;;;;6.60;5.90;;;;;;;31.11;31.19;97363.73;127012;1092;62642;-74
2021/07/25 10:16:31;;;;;;;6.50;5.90;;;;;;;31.02;31.35;97372.48;126982;1092;62622;-74
2021/07/25 10:18:58;;;;;;;6.70;6.10;;;;;;;30.91;31.44;97366.88;126985;1093;62662;-74
2021/07/25 10:21:25;;;;;;;6.15;5.55;;;;;;;30.82;31.65;97362.94;126954;1092;62617;-71
2021/07/25 10:23:57;;;;;;;6.20;5.60;;;;;;;30.75;31.96;97366.86;126948;1092;62633;-74
2021/07/25 10:26:26;;;;;;;5.80;5.30;;;;;;;30.65;31.99;97357.48;126952;1092;62721;-75
2021/07/25 10:28:57;;;;;;;6.53;5.93;;;;;;;30.58;32.13;97364.08;127025;1092;62626;-74
2021/07/25 10:31:25;;;;;;;6.45;5.85;;;;;;;30.49;32.31;97369.02;126995;1092;62636;-74
2021/07/25 10:33:53;;;;;;;6.93;6.33;;;;;;;30.42;32.43;97368.36;127019;1092;62616;-74
2021/07/25 10:36:20;;;;;;;7.70;6.90;;;;;;;30.35;32.65;97367.66;126955;1092;62681;-74
2021/07/25 10:38:47;;;;;;;6.43;5.83;;;;;;;30.29;32.70;97366.75;127013;1092;62715;-73
2021/07/25 10:41:16;;;;;;;6.80;6.20;;;;;;;30.21;32.66;97361.72;126947;1092;62620;-73
2021/07/25 10:43:43;;;;;;;;;;;;;;;30.15;33.04;97354.59;127110;1092;62588;-73
2021/07/25 10:46:13;;;;;;;6.80;6.20;;;;;;;30.11;32.89;97358.79;127043;1092;62620;-74
2021/07/25 10:49:13;;;;;;;5.93;5.43;;;;;;;30.05;32.92;97359.75;127033;1092;62688;-73
2021/07/25 10:51:56;;;;;;;6.03;5.43;;;;;;;29.99;32.98;97356.09;126914;1092;62771;-77
2021/07/25 10:54:23;;;;;;;6.40;5.80;;;;;;;29.94;33.16;97359.50;127004;1092;62697;-74
2021/07/25 10:57:10;;;;;;;6.50;5.60;;;;;;;29.90;33.04;97361.03;126959;1092;62572;-74
2021/07/25 10:59:47;;;;;;;6.87;6.17;;;;;;;29.85;33.09;97358.22;127006;1092;62616;-73
2021/07/25 11:02:47;;;;;;;6.63;6.03;;;;;;;29.81;33.22;97350.85;126934;1092;62627;-73
2021/07/25 11:05:15;;;;;;;6.30;5.70;;;;;;;29.78;33.53;97351.34;127022;1092;62581;-74
2021/07/25 11:07:43;;;;;;;6.50;5.90;;;;;;;29.73;33.41;97360.13;127053;1092;62684;-74
2021/07/25 11:10:12;;;;;;;6.03;5.43;;;;;;;29.70;33.36;97349.00;127019;1092;62659;-73
2021/07/25 11:12:51;;;;;;;6.70;6.10;;;;;;;29.65;33.42;97338.92;127011;1092;62618;-73
2021/07/25 11:15:30;;;;;;;;;;;;;;;29.62;33.53;97342.08;127075;1092;62564;-75
2021/07/25 11:18:01;;;;;;;6.17;5.57;;;;;;;29.59;33.48;97339.88;126932;1092;62722;-74
2021/07/25 11:20:39;;;;;;;6.30;5.63;;;;;;;29.56;33.37;97333.07;127267;1092;63038;-75
2021/07/25 11:23:13;;;;;;;6.30;5.70;;;;;;;29.54;33.26;97335.16;127126;1092;62572;-74
2021/07/25 11:25:40;;;;;;;5.70;5.20;;;;;;;29.52;33.27;97336.44;127048;1092;63041;-74
2021/07/25 11:28:09;;;;;;;6.53;5.93;;;;;;;29.49;33.31;97334.20;126981;1092;62690;-75
2021/07/25 11:30:48;;;;;;;6.10;5.50;;;;;;;29.46;33.45;97327.42;127043;1089;62624;-74
2021/07/25 11:33:41;;;;;;;6.93;5.97;;;;;;;29.43;33.56;97326.01;127020;1092;62718;-75
2021/07/25 11:36:15;;;;;;;6.35;5.75;;;;;;;29.40;33.34;97325.67;127085;1092;62619;-73
2021/07/25 11:38:46;;;;;;;5.80;5.30;;;;;;;29.37;33.19;97318.05;127121;1092;62622;-74